createdAt,value
2023-03-31T00:00:36.433Z,9.98
2023-03-31T00:03:39.234Z,9.97
2023-03-31T00:06:42.494Z,9.98
2023-03-31T00:09:48.486Z,9.92
2023-03-31T00:12:50.857Z,10.05
2023-03-31T00:16:00.961Z,10.06
2023-03-31T00:19:03.567Z,10.08
2023-03-31T00:22:06.284Z,10.09
2023-03-31T00:25:11.749Z,10.20
2023-03-31T00:28:14.084Z,10.25
2023-03-31T00:31:16.983Z,10.30
2023-03-31T00:34:19.578Z,10.21
2023-03-31T00:37:23.383Z,10.16
2023-03-31T00:40:25.826Z,10.14
2023-03-31T00:43:32.810Z,10.06
2023-03-31T00:46:38.606Z,9.99
2023-03-31T00:49:42.722Z,9.90
2023-03-31T00:52:47.013Z,9.91
2023-03-31T00:55:52.711Z,9.85
2023-03-31T00:58:58.329Z,9.74
2023-03-31T01:02:03.092Z,9.72
2023-03-31T01:05:06.996Z,9.70
2023-03-31T01:08:10.394Z,9.72
2023-03-31T01:11:17.075Z,9.66
2023-03-31T01:14:21.410Z,9.56
2023-03-31T01:17:25.699Z,9.54
2023-03-31T01:20:51.956Z,9.62
2023-03-31T01:24:14.063Z,9.49
2023-03-31T01:27:32.454Z,9.51
2023-03-31T01:30:55.625Z,9.40
2023-03-31T01:34:18.845Z,9.41
2023-03-31T01:37:40.340Z,9.31
2023-03-31T01:40:50.111Z,9.29
2023-03-31T01:44:05.331Z,9.27
2023-03-31T01:47:12.012Z,9.37
2023-03-31T01:50:16.924Z,9.40
2023-03-31T01:53:20.656Z,9.35
2023-03-31T01:56:30.653Z,9.34
2023-03-31T01:59:33.753Z,9.51
2023-03-31T02:02:39.805Z,9.51
2023-03-31T02:05:45.877Z,9.47
2023-03-31T02:08:51.790Z,9.43
2023-03-31T02:11:57.081Z,9.40
2023-03-31T02:15:02.018Z,9.33
2023-03-31T02:18:13.875Z,9.37
2023-03-31T02:21:17.731Z,9.44
2023-03-31T02:24:23.334Z,9.41
2023-03-31T02:27:28.329Z,9.44
2023-03-31T02:30:47.896Z,9.40
2023-03-31T02:33:51.672Z,9.33
2023-03-31T02:36:54.698Z,9.29
2023-03-31T02:39:59.098Z,9.24
2023-03-31T02:43:02.684Z,9.15
2023-03-31T02:46:06.673Z,9.16
2023-03-31T02:49:12.351Z,8.99
2023-03-31T02:52:16.529Z,8.91
2023-03-31T02:55:38.720Z,8.91
2023-03-31T02:58:49.999Z,8.82
2023-03-31T03:01:56.635Z,8.66
2023-03-31T03:04:59.991Z,8.56
2023-03-31T03:08:03.786Z,8.51
2023-03-31T03:11:25.926Z,8.51
2023-03-31T03:14:40.854Z,8.48
2023-03-31T03:17:48.050Z,8.53
2023-03-31T03:20:51.639Z,8.34
2023-03-31T03:23:56.019Z,8.43
2023-03-31T03:26:58.953Z,8.53
2023-03-31T03:30:05.565Z,8.70
2023-03-31T03:33:08.352Z,8.80
2023-03-31T03:36:12.062Z,8.86
2023-03-31T03:39:15.117Z,8.85
2023-03-31T03:42:18.302Z,8.90
2023-03-31T03:45:21.512Z,8.93
2023-03-31T03:48:26.129Z,8.91
2023-03-31T03:51:28.839Z,8.91
2023-03-31T03:54:31.764Z,8.92
2023-03-31T03:57:35.471Z,8.95
2023-03-31T04:00:39.417Z,8.93
2023-03-31T04:03:42.179Z,8.95
2023-03-31T04:06:46.937Z,8.97
2023-03-31T04:09:50.444Z,8.92
2023-03-31T04:12:54.565Z,8.90
2023-03-31T04:15:58.818Z,8.92
2023-03-31T04:19:05.776Z,8.99
2023-03-31T04:22:13.251Z,8.83
2023-03-31T04:25:17.446Z,8.73
2023-03-31T04:28:21.093Z,8.57
2023-03-31T04:31:26.162Z,8.46
2023-03-31T04:34:35.754Z,8.51
2023-03-31T04:37:39.167Z,8.38
2023-03-31T04:40:42.158Z,8.31
2023-03-31T04:43:45.154Z,8.21
2023-03-31T04:46:48.352Z,8.13
2023-03-31T04:49:51.435Z,8.04
2023-03-31T04:52:55.109Z,8.00
2023-03-31T04:56:01.217Z,7.92
2023-03-31T04:59:04.513Z,7.94
2023-03-31T05:02:07.715Z,7.97
2023-03-31T05:05:11.379Z,7.88
2023-03-31T05:08:14.272Z,7.85
2023-03-31T05:11:17.506Z,7.83
2023-03-31T05:14:21.323Z,7.83
2023-03-31T05:17:24.029Z,7.87
2023-03-31T05:20:26.766Z,7.99
2023-03-31T05:23:30.790Z,7.98
2023-03-31T05:26:34.078Z,8.12
2023-03-31T05:29:37.391Z,8.66
2023-03-31T05:32:40.525Z,9.80
2023-03-31T05:35:44.694Z,10.52
2023-03-31T05:38:48.599Z,10.31
2023-03-31T05:41:51.402Z,10.42
2023-03-31T05:44:54.787Z,10.76
2023-03-31T05:47:58.011Z,10.95
2023-03-31T05:51:02.137Z,11.31
2023-03-31T05:54:05.002Z,12.20
2023-03-31T05:57:09.253Z,13.86
2023-03-31T06:00:13.727Z,15.19
2023-03-31T06:03:17.578Z,15.82
2023-03-31T06:06:21.978Z,15.88
2023-03-31T06:09:26.516Z,16.11
2023-03-31T06:12:29.392Z,16.18
2023-03-31T06:15:32.476Z,16.68
2023-03-31T06:18:36.514Z,18.36
2023-03-31T06:21:39.594Z,19.86
2023-03-31T06:24:43.001Z,20.85
2023-03-31T06:27:45.874Z,21.80
2023-03-31T06:30:48.795Z,21.41
2023-03-31T06:33:51.838Z,20.78
2023-03-31T06:36:54.946Z,20.77
2023-03-31T06:39:57.939Z,21.96
2023-03-31T06:43:01.355Z,24.11
2023-03-31T06:46:04.924Z,23.96
2023-03-31T06:49:07.637Z,24.24
2023-03-31T06:52:11.196Z,25.81
2023-03-31T06:55:17.129Z,27.29
2023-03-31T06:58:20.324Z,28.28
2023-03-31T07:01:23.066Z,28.74
2023-03-31T07:04:26.060Z,29.42
2023-03-31T07:07:31.404Z,29.51
2023-03-31T07:10:34.438Z,30.22
2023-03-31T07:13:36.801Z,29.16
2023-03-31T07:16:39.817Z,28.22
2023-03-31T07:19:42.994Z,25.81
2023-03-31T07:22:46.281Z,23.40
2023-03-31T07:25:49.309Z,22.26
2023-03-31T07:28:52.398Z,21.49
2023-03-31T07:31:55.033Z,21.55
2023-03-31T07:34:58.238Z,20.70
2023-03-31T07:38:01.559Z,20.93
2023-03-31T07:41:09.047Z,22.87
2023-03-31T07:44:12.168Z,23.87
2023-03-31T07:47:15.448Z,21.31
2023-03-31T07:50:20.805Z,19.09
2023-03-31T07:53:23.544Z,17.91
2023-03-31T07:56:26.743Z,17.05
2023-03-31T07:59:30.861Z,16.98
2023-03-31T08:02:35.530Z,17.07
2023-03-31T08:05:38.683Z,16.82
2023-03-31T08:08:43.785Z,16.75
2023-03-31T08:11:48.100Z,16.90
2023-03-31T08:14:51.684Z,16.94
2023-03-31T08:17:54.588Z,16.91
2023-03-31T08:20:57.443Z,16.84
2023-03-31T08:24:00.312Z,16.92
2023-03-31T08:27:03.334Z,17.02
2023-03-31T08:30:07.631Z,16.98
2023-03-31T08:33:12.690Z,17.02
2023-03-31T08:36:15.961Z,17.09
2023-03-31T08:39:19.310Z,17.24
2023-03-31T08:42:24.034Z,17.13
2023-03-31T08:45:30.960Z,17.12
2023-03-31T08:48:39.294Z,16.99
2023-03-31T08:51:42.838Z,16.77
2023-03-31T08:54:49.886Z,16.84
2023-03-31T08:57:58.347Z,16.70
2023-03-31T09:01:07.097Z,16.48
2023-03-31T09:04:22.501Z,16.20
2023-03-31T09:07:32.815Z,16.24
2023-03-31T09:10:42.548Z,16.25
2023-03-31T09:13:46.129Z,16.35
2023-03-31T09:16:51.863Z,16.18
2023-03-31T09:20:02.053Z,16.35
2023-03-31T09:23:18.491Z,16.85
2023-03-31T09:26:43.093Z,17.25
2023-03-31T09:29:58.985Z,17.41
2023-03-31T09:33:36.861Z,17.07
2023-03-31T09:36:39.746Z,17.19
2023-03-31T09:39:42.772Z,17.04
2023-03-31T09:42:47.068Z,16.90
2023-03-31T09:46:07.756Z,16.83
2023-03-31T09:49:14.752Z,17.06
2023-03-31T09:52:26.554Z,17.09
2023-03-31T09:55:44.061Z,17.34
2023-03-31T09:58:47.190Z,17.41
2023-03-31T10:01:54.374Z,17.58
2023-03-31T10:04:58.083Z,17.76
2023-03-31T10:08:20.258Z,17.77
2023-03-31T10:11:23.855Z,17.70
2023-03-31T10:14:49.572Z,17.68
2023-03-31T10:17:55.526Z,17.95
2023-03-31T10:20:59.751Z,18.20
2023-03-31T10:24:03.319Z,18.33
2023-03-31T10:27:07.895Z,18.44
2023-03-31T10:30:12.575Z,18.40
2023-03-31T10:36:26.648Z,18.36
2023-03-31T10:39:31.494Z,18.34
2023-03-31T10:42:34.704Z,18.23
2023-03-31T10:45:39.345Z,18.14
2023-03-31T10:48:43.318Z,18.18
2023-03-31T10:51:56.561Z,17.87
2023-03-31T10:54:59.565Z,17.60
2023-03-31T10:58:07.562Z,17.83
2023-03-31T11:01:30.123Z,18.13
2023-03-31T11:04:51.314Z,18.40
2023-03-31T11:07:54.029Z,18.46
2023-03-31T11:11:34.898Z,18.05
2023-03-31T11:14:56.405Z,18.49
2023-03-31T11:18:01.761Z,19.27
2023-03-31T11:21:13.304Z,19.72
2023-03-31T11:24:38.973Z,20.00
2023-03-31T11:27:51.431Z,20.01
2023-03-31T11:31:11.690Z,19.52
2023-03-31T11:34:13.964Z,19.45
2023-03-31T11:37:25.810Z,19.31
2023-03-31T11:40:28.277Z,19.45
2023-03-31T11:43:33.703Z,19.23
2023-03-31T11:46:36.581Z,19.17
2023-03-31T11:49:42.171Z,19.11
2023-03-31T11:52:49.258Z,19.26
2023-03-31T11:55:54.863Z,19.18
2023-03-31T11:58:59.480Z,19.30
2023-03-31T12:02:11.439Z,19.00
2023-03-31T12:05:14.938Z,19.02
2023-03-31T12:08:32.281Z,18.93
2023-03-31T12:11:40.725Z,18.80
2023-03-31T12:14:47.790Z,18.69
2023-03-31T12:17:56.436Z,18.88
2023-03-31T12:21:01.512Z,19.12
2023-03-31T12:24:05.399Z,19.32
2023-03-31T12:27:14.447Z,19.57
2023-03-31T12:30:20.926Z,20.06
2023-03-31T12:33:28.916Z,20.19
2023-03-31T12:36:55.509Z,20.36
2023-03-31T12:40:17.239Z,20.63
2023-03-31T12:43:38.459Z,20.66
2023-03-31T12:46:47.124Z,20.45
2023-03-31T12:49:52.494Z,20.51
2023-03-31T12:52:58.742Z,20.54
2023-03-31T12:56:01.120Z,20.02
2023-03-31T12:59:23.010Z,19.85
2023-03-31T13:02:26.508Z,19.86
2023-03-31T13:05:47.801Z,19.91
2023-03-31T13:08:51.396Z,19.98
2023-03-31T13:11:54.439Z,19.83
2023-03-31T13:15:00.583Z,19.81
2023-03-31T13:18:05.664Z,19.57
2023-03-31T13:21:09.571Z,19.26
2023-03-31T13:24:13.184Z,19.57
2023-03-31T13:27:30.393Z,19.70
2023-03-31T13:30:42.138Z,19.69
2023-03-31T13:33:57.577Z,19.92
2023-03-31T13:37:10.839Z,20.20
2023-03-31T13:40:16.815Z,20.04
2023-03-31T13:43:19.263Z,19.84
2023-03-31T13:46:40.190Z,19.71
2023-03-31T13:49:54.160Z,19.59
2023-03-31T13:53:09.505Z,19.54
2023-03-31T13:56:30.822Z,19.34
2023-03-31T13:59:48.934Z,19.03
2023-03-31T14:02:54.467Z,18.86
2023-03-31T14:06:14.557Z,18.92
2023-03-31T14:09:29.952Z,18.74
2023-03-31T14:12:36.846Z,18.73
2023-03-31T14:15:41.498Z,18.65
2023-03-31T14:18:49.629Z,18.61
2023-03-31T14:21:56.430Z,18.55
2023-03-31T14:25:34.546Z,18.49
2023-03-31T14:28:47.874Z,18.56
2023-03-31T14:32:05.556Z,18.79
2023-03-31T14:35:20.270Z,18.93
2023-03-31T14:38:23.378Z,19.05
2023-03-31T14:41:30.082Z,19.21
2023-03-31T14:44:33.940Z,18.90
2023-03-31T14:47:36.708Z,18.63
2023-03-31T14:50:42.410Z,18.45
2023-03-31T14:53:45.124Z,18.38
2023-03-31T14:56:53.457Z,18.37
2023-03-31T14:59:56.217Z,18.20
2023-03-31T15:03:00.486Z,18.13
2023-03-31T15:06:03.770Z,17.98
2023-03-31T15:09:06.536Z,17.73
2023-03-31T15:12:12.810Z,17.47
2023-03-31T15:15:16.338Z,17.39
2023-03-31T15:18:18.803Z,17.43
2023-03-31T15:21:22.486Z,17.55
2023-03-31T15:24:25.003Z,17.59
2023-03-31T15:27:36.956Z,17.56
2023-03-31T15:30:40.819Z,17.42
2023-03-31T15:33:43.320Z,17.21
2023-03-31T15:36:46.334Z,17.08
2023-03-31T15:39:49.616Z,16.90
2023-03-31T15:43:06.692Z,16.76
2023-03-31T15:46:21.100Z,16.70
2023-03-31T15:49:24.867Z,16.63
2023-03-31T15:52:36.533Z,16.64
2023-03-31T15:58:55.922Z,16.42
2023-03-31T16:02:00.279Z,16.28
2023-03-31T16:05:08.087Z,16.17
2023-03-31T16:08:24.692Z,16.09
2023-03-31T16:11:33.503Z,16.06
2023-03-31T16:14:38.665Z,16.08
2023-03-31T16:17:46.399Z,16.09
2023-03-31T16:20:56.606Z,16.02
2023-03-31T16:24:00.105Z,15.87
2023-03-31T16:27:07.110Z,15.71
2023-03-31T16:30:13.048Z,15.54
2023-03-31T16:33:19.547Z,15.31
2023-03-31T16:36:21.887Z,15.17
2023-03-31T16:39:24.403Z,15.14
2023-03-31T16:42:27.493Z,15.00
2023-03-31T16:45:30.491Z,14.95
2023-03-31T16:48:36.397Z,14.90
2023-03-31T16:51:39.209Z,14.82
2023-03-31T16:54:42.020Z,14.82
2023-03-31T16:57:44.300Z,14.83
2023-03-31T17:00:47.414Z,14.80
2023-03-31T17:03:50.293Z,14.71
2023-03-31T17:06:53.454Z,14.72
2023-03-31T17:09:56.000Z,14.66
2023-03-31T17:12:58.532Z,14.56
2023-03-31T17:19:27.568Z,14.44
2023-03-31T17:22:30.496Z,14.37
2023-03-31T17:25:35.378Z,14.30
2023-03-31T17:28:38.330Z,14.22
2023-03-31T17:31:41.167Z,14.15
2023-03-31T17:34:43.942Z,14.12
2023-03-31T17:37:46.605Z,14.04
2023-03-31T17:40:49.301Z,14.03
2023-03-31T17:43:51.740Z,13.98
2023-03-31T17:46:54.135Z,13.97
2023-03-31T17:49:56.537Z,13.88
2023-03-31T17:52:59.120Z,13.83
2023-03-31T17:56:02.371Z,13.78
2023-03-31T17:59:05.694Z,13.72
2023-03-31T18:02:08.847Z,13.71
2023-03-31T18:05:11.689Z,13.73
2023-03-31T18:08:14.466Z,13.71
2023-03-31T18:11:17.555Z,13.68
2023-03-31T18:14:20.842Z,13.67
2023-03-31T18:17:24.200Z,13.63
2023-03-31T18:20:26.752Z,13.48
2023-03-31T18:23:29.862Z,13.42
2023-03-31T18:26:32.420Z,13.25
2023-03-31T18:29:36.859Z,12.99
2023-03-31T18:32:40.527Z,12.80
2023-03-31T18:35:43.182Z,12.68
2023-03-31T18:38:46.506Z,12.65
2023-03-31T18:41:50.248Z,12.65
2023-03-31T18:44:53.650Z,12.68
2023-03-31T18:47:56.860Z,12.74
2023-03-31T18:50:59.835Z,12.78
2023-03-31T18:54:02.378Z,12.84
2023-03-31T18:57:05.035Z,12.89
2023-03-31T19:00:08.587Z,12.87
2023-03-31T19:03:12.070Z,12.92
2023-03-31T19:06:16.922Z,12.89
2023-03-31T19:09:20.714Z,12.88
2023-03-31T19:12:24.170Z,12.85
2023-03-31T19:15:28.440Z,12.83
2023-03-31T19:18:31.468Z,12.78
2023-03-31T19:21:36.818Z,12.75
2023-03-31T19:24:40.629Z,12.66
2023-03-31T19:27:44.044Z,12.60
2023-03-31T19:30:48.020Z,12.51
2023-03-31T19:33:50.706Z,12.50
2023-03-31T19:36:54.402Z,12.33
2023-03-31T19:39:57.197Z,12.18
2023-03-31T19:42:59.759Z,11.97
2023-03-31T19:46:02.835Z,11.79
2023-03-31T19:49:05.898Z,11.63
2023-03-31T19:52:08.745Z,11.50
2023-03-31T19:55:12.143Z,11.29
2023-03-31T19:58:15.125Z,11.03
2023-03-31T20:01:25.293Z,10.82
2023-03-31T20:04:27.924Z,10.60
2023-03-31T20:07:30.470Z,10.25
2023-03-31T20:10:33.017Z,9.99
2023-03-31T20:13:38.809Z,9.85
2023-03-31T20:16:41.906Z,9.64
2023-03-31T20:19:45.291Z,9.67
2023-03-31T20:22:47.633Z,9.54
2023-03-31T20:25:51.889Z,9.47
2023-03-31T20:28:56.110Z,9.37
2023-03-31T20:31:58.482Z,9.25
2023-03-31T20:35:00.698Z,9.21
2023-03-31T20:38:02.814Z,9.33
2023-03-31T20:41:05.725Z,9.32
2023-03-31T20:44:12.018Z,9.27
2023-03-31T20:47:15.907Z,9.34
2023-03-31T20:50:17.999Z,9.46
2023-03-31T20:53:20.056Z,9.33
2023-03-31T20:56:23.638Z,9.32
2023-03-31T20:59:25.707Z,9.25
2023-03-31T21:02:27.626Z,9.21
2023-03-31T21:05:29.959Z,9.26
2023-03-31T21:08:32.426Z,9.30
2023-03-31T21:11:34.609Z,9.20
2023-03-31T21:14:36.788Z,9.13
2023-03-31T21:17:38.904Z,9.14
2023-03-31T21:20:40.903Z,9.10
2023-03-31T21:23:42.779Z,8.99
2023-03-31T21:26:44.651Z,9.00
2023-03-31T21:29:46.482Z,8.95
2023-03-31T21:32:48.532Z,8.98
2023-03-31T21:35:51.269Z,9.06
2023-03-31T21:38:53.962Z,8.95
2023-03-31T21:41:55.895Z,9.06
2023-03-31T21:44:59.078Z,9.09
2023-03-31T21:48:01.364Z,9.12
2023-03-31T21:51:03.763Z,9.10
2023-03-31T21:54:06.840Z,9.11
2023-03-31T21:57:08.935Z,9.21
2023-03-31T22:00:15.784Z,9.19
2023-03-31T22:03:27.039Z,9.22
2023-03-31T22:06:30.018Z,9.26
2023-03-31T22:09:31.954Z,9.33
2023-03-31T22:12:34.217Z,9.29
2023-03-31T22:15:36.677Z,9.28
2023-03-31T22:18:38.655Z,9.28
2023-03-31T22:21:40.974Z,9.31
2023-03-31T22:24:42.913Z,9.21
2023-03-31T22:27:44.881Z,9.18
2023-03-31T22:30:47.304Z,9.17
2023-03-31T22:33:49.615Z,9.22
2023-03-31T22:36:51.885Z,9.22
2023-03-31T22:39:53.883Z,9.22
2023-03-31T22:42:57.480Z,9.19
2023-03-31T22:46:06.636Z,9.22
2023-03-31T22:49:09.794Z,9.22
2023-03-31T22:52:13.565Z,9.36
2023-03-31T22:55:15.930Z,9.52
2023-03-31T22:58:18.147Z,9.55
2023-03-31T23:01:20.964Z,9.58
2023-03-31T23:04:23.514Z,9.58
2023-03-31T23:07:25.997Z,9.61
2023-03-31T23:10:28.407Z,9.63
2023-03-31T23:13:30.966Z,9.64
2023-03-31T23:16:33.029Z,9.58
2023-03-31T23:19:35.135Z,9.51
2023-03-31T23:22:37.672Z,9.39
2023-03-31T23:25:39.696Z,9.33
2023-03-31T23:28:41.818Z,9.18
2023-03-31T23:31:44.056Z,9.11
2023-03-31T23:34:46.267Z,9.02
2023-03-31T23:37:48.571Z,8.99
2023-03-31T23:40:50.917Z,8.95
2023-03-31T23:43:53.896Z,9.02
2023-03-31T23:46:56.177Z,9.02
2023-03-31T23:49:58.748Z,9.04
2023-03-31T23:53:01.577Z,9.02
2023-03-31T23:56:13.448Z,8.98
2023-03-31T23:59:16.045Z,8.89
